Time;durP1;ratioP1;P1;durP2;ratioP2;P2;SDS_P1;SDS_P2;PMS_P1;PMS_P2;Temp;Humidity;BMP_temperature;BMP_pressure;BME280_temperature;BME280_humidity;BME280_pressure;Samples;Min_cycle;Max_cycle;Signal;HPM_P1;HPM_P2
2021/09/21 00:03:50;;;;;;;0.03;0.03;;;;;;;;;;10433156;28;20052;-63
2021/09/21 00:08:52;;;;;;;0.10;0.10;;;;;;;;;;10418963;28;20058;-63
2021/09/21 00:13:57;;;;;;;0.10;0.10;;;;;;;;;;10420327;28;20049;-64
2021/09/21 00:19:00;;;;;;;0.10;0.10;;;;;;;;;;10437530;28;20693;-64
2021/09/21 00:24:03;;;;;;;0.10;0.10;;;;;;;;;;10439061;28;20136;-64
2021/09/21 00:29:08;;;;;;;0.10;0.10;;;;;;;;;;10418494;28;20131;-63
2021/09/21 00:34:12;;;;;;;0.10;0.10;;;;;;;;;;10432873;28;20872;-64
2021/09/21 00:39:15;;;;;;;0.10;0.10;;;;;;;;;;10438886;28;20032;-64
2021/09/21 00:44:21;;;;;;;0.25;0.10;;;;;;;;;;10439049;28;20483;-64
2021/09/21 00:49:23;;;;;;;0.05;0.05;;;;;;;;;;10421421;28;20045;-64
2021/09/21 00:54:27;;;;;;;0.20;0.10;;;;;;;;;;10437090;28;20848;-63
2021/09/21 00:59:31;;;;;;;0.08;0.08;;;;;;;;;;10413787;28;20045;-63
2021/09/21 01:04:33;;;;;;;0.00;0.00;;;;;;;;;;10435369;28;20064;-64
2021/09/21 01:09:36;;;;;;;0.10;0.10;;;;;;;;;;10431705;28;20506;-64
2021/09/21 01:14:40;;;;;;;0.10;0.10;;;;;;;;;;10432078;28;20127;-63
2021/09/21 01:19:43;;;;;;;0.00;0.00;;;;;;;;;;10415186;28;20118;-64
2021/09/21 01:24:47;;;;;;;0.00;0.00;;;;;;;;;;10423004;28;20048;-64
2021/09/21 01:29:50;;;;;;;0.10;0.10;;;;;;;;;;10420662;28;20064;-63
2021/09/21 01:34:53;;;;;;;0.10;0.10;;;;;;;;;;10431378;28;20048;-64
2021/09/21 01:39:57;;;;;;;0.10;0.10;;;;;;;;;;10428468;28;20047;-63
2021/09/21 01:45:00;;;;;;;0.10;0.10;;;;;;;;;;10419797;28;20037;-63
2021/09/21 01:50:11;;;;;;;0.10;0.10;;;;;;;;;;10421863;28;20472;-64
2021/09/21 01:55:22;;;;;;;0.10;0.10;;;;;;;;;;10428924;28;20052;-63
2021/09/21 02:00:24;;;;;;;0.10;0.10;;;;;;;;;;10419433;28;20442;-63
2021/09/21 02:05:27;;;;;;;0.00;0.00;;;;;;;;;;10426037;28;20068;-63
2021/09/21 02:10:31;;;;;;;0.10;0.10;;;;;;;;;;10419134;28;20053;-63
2021/09/21 02:15:34;;;;;;;0.10;0.10;;;;;;;;;;10423529;28;20059;-64
2021/09/21 02:20:37;;;;;;;0.10;0.10;;;;;;;;;;10417397;28;20190;-64
2021/09/21 02:25:41;;;;;;;0.10;0.10;;;;;;;;;;10427633;28;20531;-64
2021/09/21 02:30:44;;;;;;;0.10;0.10;;;;;;;;;;10418012;28;20407;-64
2021/09/21 02:35:46;;;;;;;0.10;0.10;;;;;;;;;;10428836;28;20384;-63
2021/09/21 02:40:51;;;;;;;0.22;0.10;;;;;;;;;;10418723;28;20398;-63
2021/09/21 02:45:53;;;;;;;0.10;0.10;;;;;;;;;;10422072;28;20497;-63
2021/09/21 02:50:56;;;;;;;0.10;0.10;;;;;;;;;;10419406;28;20045;-63
2021/09/21 02:56:00;;;;;;;0.10;0.10;;;;;;;;;;10420904;28;20045;-63
2021/09/21 03:01:03;;;;;;;0.10;0.10;;;;;;;;;;10417116;28;20065;-63
2021/09/21 03:06:10;;;;;;;0.10;0.10;;;;;;;;;;10429725;28;20055;-63
2021/09/21 03:11:17;;;;;;;0.10;0.10;;;;;;;;;;10419314;28;20057;-64
2021/09/21 03:21:41;;;;;;;0.10;0.10;;;;;;;;;;10421482;28;20044;-64
2021/09/21 03:26:45;;;;;;;0.10;0.10;;;;;;;;;;10422380;28;20063;-63
2021/09/21 03:31:48;;;;;;;0.10;0.10;;;;;;;;;;10419295;28;20044;-64
2021/09/21 03:36:51;;;;;;;0.55;0.10;;;;;;;;;;10390221;28;20049;-64
2021/09/21 03:41:55;;;;;;;0.10;0.10;;;;;;;;;;10423479;28;20055;-64
2021/09/21 03:46:58;;;;;;;0.10;0.10;;;;;;;;;;10420388;28;20065;-64
2021/09/21 03:52:01;;;;;;;0.10;0.10;;;;;;;;;;10421022;28;20073;-64
2021/09/21 03:57:05;;;;;;;0.10;0.10;;;;;;;;;;10407017;28;20123;-63
2021/09/21 04:02:08;;;;;;;0.05;0.05;;;;;;;;;;10415993;28;20047;-64
2021/09/21 04:07:11;;;;;;;0.00;0.00;;;;;;;;;;10424428;28;20083;-64
2021/09/21 04:12:15;;;;;;;0.10;0.10;;;;;;;;;;10421094;28;20140;-64
2021/09/21 04:17:19;;;;;;;0.10;0.10;;;;;;;;;;10411035;28;20045;-64
2021/09/21 04:22:21;;;;;;;0.10;0.10;;;;;;;;;;10415181;28;20514;-63
2021/09/21 04:27:25;;;;;;;0.10;0.10;;;;;;;;;;10427590;28;20053;-64
2021/09/21 04:32:28;;;;;;;0.10;0.10;;;;;;;;;;10410710;28;20111;-64
2021/09/21 04:37:31;;;;;;;0.20;0.10;;;;;;;;;;10407265;28;20041;-65
2021/09/21 04:42:35;;;;;;;0.10;0.10;;;;;;;;;;10415804;28;20046;-63
2021/09/21 04:47:38;;;;;;;0.10;0.10;;;;;;;;;;10422582;28;20056;-64
2021/09/21 04:52:41;;;;;;;0.10;0.10;;;;;;;;;;10424312;28;20600;-64
2021/09/21 04:57:46;;;;;;;0.10;0.10;;;;;;;;;;10429838;28;20640;-64
2021/09/21 05:02:48;;;;;;;0.10;0.10;;;;;;;;;;10427100;28;20041;-64
2021/09/21 05:07:51;;;;;;;0.10;0.10;;;;;;;;;;10422717;28;20045;-64
2021/09/21 05:12:56;;;;;;;0.10;0.10;;;;;;;;;;10422672;28;20056;-64
2021/09/21 05:17:59;;;;;;;0.10;0.10;;;;;;;;;;10427879;28;20045;-64
2021/09/21 05:23:02;;;;;;;0.30;0.10;;;;;;;;;;10427371;28;20060;-64
2021/09/21 05:28:06;;;;;;;0.10;0.10;;;;;;;;;;10429088;28;20046;-64
2021/09/21 05:33:09;;;;;;;0.10;0.10;;;;;;;;;;10430461;28;20167;-64
2021/09/21 05:38:11;;;;;;;0.17;0.10;;;;;;;;;;10424722;28;20056;-64
2021/09/21 05:43:16;;;;;;;0.10;0.10;;;;;;;;;;10424091;28;20423;-64
2021/09/21 05:48:18;;;;;;;0.10;0.10;;;;;;;;;;10415541;28;20603;-64
2021/09/21 05:53:21;;;;;;;0.15;0.15;;;;;;;;;;10415119;28;20068;-64
2021/09/21 05:58:25;;;;;;;0.10;0.10;;;;;;;;;;10423634;28;20054;-64
2021/09/21 06:03:30;;;;;;;0.20;0.10;;;;;;;;;;10417168;28;20064;-64
2021/09/21 06:08:33;;;;;;;0.05;0.05;;;;;;;;;;10420422;28;20121;-68
2021/09/21 06:13:37;;;;;;;0.10;0.10;;;;;;;;;;10408031;28;20056;-62
2021/09/21 06:18:40;;;;;;;0.10;0.10;;;;;;;;;;10402488;28;20041;-63
2021/09/21 06:23:42;;;;;;;0.10;0.10;;;;;;;;;;10412923;28;20037;-64
2021/09/21 06:28:46;;;;;;;0.10;0.10;;;;;;;;;;10425451;28;20041;-63
2021/09/21 06:33:49;;;;;;;0.10;0.10;;;;;;;;;;10421255;28;20067;-63
2021/09/21 06:38:52;;;;;;;0.10;0.10;;;;;;;;;;10420893;28;20132;-61
2021/09/21 06:43:56;;;;;;;0.10;0.10;;;;;;;;;;10418810;28;20063;-63
2021/09/21 06:49:02;;;;;;;0.10;0.10;;;;;;;;;;10415050;28;20049;-63
2021/09/21 06:54:04;;;;;;;0.03;0.03;;;;;;;;;;10426706;28;20051;-63
2021/09/21 06:59:09;;;;;;;0.10;0.10;;;;;;;;;;10420538;28;20120;-64
2021/09/21 07:04:12;;;;;;;0.00;0.00;;;;;;;;;;10427071;28;20052;-65
2021/09/21 07:09:15;;;;;;;0.10;0.10;;;;;;;;;;10423073;28;20138;-63
2021/09/21 07:14:19;;;;;;;0.10;0.10;;;;;;;;;;10425236;28;20051;-63
2021/09/21 07:19:22;;;;;;;0.10;0.10;;;;;;;;;;10416634;28;20414;-63
2021/09/21 07:24:25;;;;;;;0.10;0.10;;;;;;;;;;10426801;28;20045;-63
2021/09/21 07:29:30;;;;;;;0.10;0.10;;;;;;;;;;10423221;28;20366;-63
2021/09/21 07:34:32;;;;;;;0.10;0.10;;;;;;;;;;10424105;28;20041;-63
2021/09/21 07:39:35;;;;;;;0.90;0.10;;;;;;;;;;10412750;28;20070;-63
2021/09/21 07:44:39;;;;;;;0.10;0.10;;;;;;;;;;10411206;28;20056;-63
2021/09/21 07:49:42;;;;;;;0.10;0.10;;;;;;;;;;10398662;28;20494;-63
2021/09/21 07:54:46;;;;;;;0.10;0.10;;;;;;;;;;10426237;28;20175;-64
2021/09/21 07:59:50;;;;;;;0.10;0.10;;;;;;;;;;10422117;28;20406;-63
2021/09/21 08:04:53;;;;;;;0.10;0.10;;;;;;;;;;10398922;28;20044;-62
2021/09/21 08:09:58;;;;;;;0.10;0.10;;;;;;;;;;10403443;28;20053;-64
2021/09/21 08:15:02;;;;;;;0.10;0.10;;;;;;;;;;10413613;28;20132;-63
2021/09/21 08:20:05;;;;;;;0.20;0.20;;;;;;;;;;10424408;28;20052;-64
2021/09/21 08:25:09;;;;;;;0.10;0.10;;;;;;;;;;10420955;28;20049;-64
2021/09/21 08:30:14;;;;;;;0.10;0.10;;;;;;;;;;10418794;28;20067;-64
2021/09/21 08:35:16;;;;;;;0.10;0.10;;;;;;;;;;10428387;28;20045;-64
2021/09/21 08:40:19;;;;;;;0.10;0.10;;;;;;;;;;10427879;28;20057;-64
2021/09/21 08:45:23;;;;;;;0.10;0.10;;;;;;;;;;10422926;28;20057;-65
2021/09/21 08:50:26;;;;;;;0.10;0.10;;;;;;;;;;10423689;28;20055;-64
2021/09/21 08:55:29;;;;;;;0.10;0.10;;;;;;;;;;10424466;28;20052;-64
2021/09/21 09:00:34;;;;;;;0.10;0.10;;;;;;;;;;10421163;28;20044;-65
2021/09/21 09:05:44;;;;;;;0.10;0.10;;;;;;;;;;10429883;28;20045;-64
2021/09/21 09:10:52;;;;;;;0.10;0.10;;;;;;;;;;10422004;28;20049;-64
2021/09/21 09:15:57;;;;;;;0.20;0.10;;;;;;;;;;10430724;28;20048;-65
2021/09/21 09:21:00;;;;;;;0.10;0.10;;;;;;;;;;10428016;28;20053;-65
2021/09/21 09:26:03;;;;;;;1.45;0.10;;;;;;;;;;10429224;28;20116;-64
2021/09/21 09:31:07;;;;;;;0.17;0.17;;;;;;;;;;10417576;28;20485;-61
2021/09/21 09:36:10;;;;;;;0.10;0.10;;;;;;;;;;10407960;28;20049;-61
2021/09/21 09:41:14;;;;;;;0.10;0.10;;;;;;;;;;10422229;28;20041;-63
2021/09/21 09:46:19;;;;;;;0.20;0.10;;;;;;;;;;10429288;28;20059;-63
2021/09/21 09:51:21;;;;;;;0.10;0.10;;;;;;;;;;10430155;28;20048;-62
2021/09/21 09:56:24;;;;;;;0.10;0.10;;;;;;;;;;10429999;28;20041;-63
2021/09/21 10:01:28;;;;;;;0.08;0.08;;;;;;;;;;10421956;28;20045;-63
2021/09/21 10:06:32;;;;;;;0.10;0.10;;;;;;;;;;10424257;28;20065;-63
2021/09/21 10:11:35;;;;;;;0.85;0.10;;;;;;;;;;10426082;28;20052;-62
2021/09/21 10:16:47;;;;;;;0.20;0.20;;;;;;;;;;10423611;28;20600;-63
2021/09/21 10:21:50;;;;;;;0.10;0.10;;;;;;;;;;10415041;28;20044;-63
2021/09/21 10:27:00;;;;;;;0.10;0.10;;;;;;;;;;10423409;28;20049;-62
2021/09/21 10:32:11;;;;;;;0.52;0.17;;;;;;;;;;10422774;28;20110;-62
2021/09/21 10:37:14;;;;;;;0.10;0.10;;;;;;;;;;10423583;28;20041;-62
2021/09/21 10:42:23;;;;;;;0.08;0.08;;;;;;;;;;10420628;28;20040;-63
2021/09/21 10:47:27;;;;;;;0.13;0.08;;;;;;;;;;10425150;28;20045;-63
2021/09/21 10:52:30;;;;;;;0.00;0.00;;;;;;;;;;10423271;28;20480;-63
2021/09/21 10:57:34;;;;;;;0.15;0.10;;;;;;;;;;10425694;28;20148;-63
2021/09/21 11:02:39;;;;;;;0.00;0.00;;;;;;;;;;10422531;28;20104;-63
2021/09/21 11:07:48;;;;;;;0.05;0.05;;;;;;;;;;10428408;28;20099;-63
2021/09/21 11:12:52;;;;;;;0.00;0.00;;;;;;;;;;10422571;28;20045;-62
2021/09/21 11:18:05;;;;;;;0.47;0.10;;;;;;;;;;10423792;28;20057;-63
2021/09/21 11:23:09;;;;;;;0.10;0.10;;;;;;;;;;10426071;28;20358;-63
2021/09/21 11:28:14;;;;;;;0.08;0.08;;;;;;;;;;10411982;28;20487;-63
2021/09/21 11:33:19;;;;;;;0.00;0.00;;;;;;;;;;10408598;28;20051;-63
2021/09/21 11:38:22;;;;;;;0.00;0.00;;;;;;;;;;10405923;28;20491;-62
2021/09/21 11:43:25;;;;;;;0.00;0.00;;;;;;;;;;10438290;28;20498;-62
2021/09/21 11:48:29;;;;;;;0.10;0.10;;;;;;;;;;10416013;28;20037;-62
2021/09/21 11:53:32;;;;;;;0.28;0.10;;;;;;;;;;10420335;28;20563;-62
2021/09/21 11:58:38;;;;;;;0.10;0.10;;;;;;;;;;10423689;28;20127;-63
2021/09/21 12:03:42;;;;;;;0.00;0.00;;;;;;;;;;10428701;28;20063;-63
2021/09/21 12:08:45;;;;;;;0.10;0.10;;;;;;;;;;10418775;28;20110;-64
2021/09/21 12:13:48;;;;;;;0.20;0.10;;;;;;;;;;10425375;28;20487;-64
2021/09/21 12:18:52;;;;;;;0.10;0.10;;;;;;;;;;10430611;28;20435;-63
2021/09/21 12:23:55;;;;;;;0.13;0.10;;;;;;;;;;10429036;28;20048;-65
2021/09/21 12:28:59;;;;;;;0.38;0.05;;;;;;;;;;10424945;28;20510;-65
2021/09/21 12:34:08;;;;;;;0.10;0.10;;;;;;;;;;10422584;28;20087;-64
2021/09/21 12:39:13;;;;;;;0.60;0.00;;;;;;;;;;10423315;28;20048;-63
2021/09/21 12:44:16;;;;;;;0.10;0.10;;;;;;;;;;10427781;28;20045;-62
2021/09/21 12:49:20;;;;;;;0.00;0.00;;;;;;;;;;10427489;28;20501;-62
2021/09/21 12:54:25;;;;;;;0.10;0.10;;;;;;;;;;10427069;28;20056;-63
2021/09/21 12:59:29;;;;;;;0.10;0.10;;;;;;;;;;10421174;28;20037;-63
2021/09/21 13:04:33;;;;;;;0.10;0.10;;;;;;;;;;10429953;28;20083;-64
2021/09/21 13:09:36;;;;;;;0.10;0.10;;;;;;;;;;10429112;28;20124;-62
2021/09/21 13:14:41;;;;;;;0.00;0.00;;;;;;;;;;10429206;28;20041;-63
2021/09/21 13:19:45;;;;;;;0.10;0.10;;;;;;;;;;10427931;28;20119;-63
2021/09/21 13:24:48;;;;;;;0.00;0.00;;;;;;;;;;10426584;28;20044;-63
2021/09/21 13:29:51;;;;;;;0.10;0.10;;;;;;;;;;10426684;28;20404;-63
2021/09/21 13:34:55;;;;;;;0.00;0.00;;;;;;;;;;10435273;28;20071;-62
2021/09/21 13:39:58;;;;;;;0.10;0.10;;;;;;;;;;10409815;28;20048;-64
2021/09/21 13:45:01;;;;;;;0.65;0.00;;;;;;;;;;10415078;28;20446;-64
2021/09/21 13:50:05;;;;;;;0.10;0.10;;;;;;;;;;10425419;28;20053;-63
2021/09/21 13:55:09;;;;;;;0.00;0.00;;;;;;;;;;10424589;28;21103;-63
2021/09/21 14:00:13;;;;;;;0.47;0.00;;;;;;;;;;10415188;28;20049;-62
2021/09/21 14:05:18;;;;;;;0.57;0.10;;;;;;;;;;10431933;28;20040;-63
2021/09/21 14:10:21;;;;;;;0.00;0.00;;;;;;;;;;10424682;28;20799;-67
2021/09/21 14:15:24;;;;;;;0.10;0.10;;;;;;;;;;10415798;28;20083;-65
2021/09/21 14:20:28;;;;;;;0.00;0.00;;;;;;;;;;10421580;28;20048;-64
2021/09/21 14:25:31;;;;;;;0.00;0.00;;;;;;;;;;10424974;28;20044;-67
2021/09/21 14:30:34;;;;;;;0.00;0.00;;;;;;;;;;10428106;28;20044;-68
2021/09/21 14:35:39;;;;;;;0.20;0.10;;;;;;;;;;10423057;28;20555;-66
2021/09/21 14:40:42;;;;;;;0.20;0.10;;;;;;;;;;10420552;28;20064;-65
2021/09/21 14:45:45;;;;;;;0.00;0.00;;;;;;;;;;10429574;28;20048;-63
2021/09/21 14:50:50;;;;;;;0.10;0.10;;;;;;;;;;10424153;28;20564;-70
2021/09/21 14:55:53;;;;;;;0.10;0.10;;;;;;;;;;10427271;28;20044;-62
2021/09/21 15:00:55;;;;;;;0.10;0.00;;;;;;;;;;10424667;28;20491;-61
2021/09/21 15:06:00;;;;;;;0.10;0.10;;;;;;;;;;10428773;28;20592;-62
2021/09/21 15:11:03;;;;;;;0.00;0.00;;;;;;;;;;10429957;28;20056;-64
2021/09/21 15:16:06;;;;;;;0.10;0.10;;;;;;;;;;10409455;28;20120;-62
2021/09/21 15:21:11;;;;;;;0.00;0.00;;;;;;;;;;10414670;28;20048;-61
2021/09/21 15:26:13;;;;;;;0.10;0.10;;;;;;;;;;10411085;28;20403;-60
2021/09/21 15:31:16;;;;;;;0.10;0.10;;;;;;;;;;10414891;28;20059;-61
2021/09/21 15:36:20;;;;;;;0.10;0.10;;;;;;;;;;10404585;28;20801;-61
2021/09/21 15:41:23;;;;;;;0.10;0.10;;;;;;;;;;10413447;28;20037;-62
2021/09/21 15:46:26;;;;;;;0.10;0.10;;;;;;;;;;10420195;28;20346;-61
2021/09/21 15:51:32;;;;;;;0.10;0.10;;;;;;;;;;10413009;28;20041;-61
2021/09/21 15:56:37;;;;;;;0.00;0.00;;;;;;;;;;10437122;28;20179;-62
2021/09/21 16:01:41;;;;;;;0.10;0.00;;;;;;;;;;10419191;28;20049;-61
2021/09/21 16:06:45;;;;;;;0.10;0.10;;;;;;;;;;10416060;28;20472;-61
2021/09/21 16:11:50;;;;;;;0.10;0.10;;;;;;;;;;10412705;28;20061;-62
2021/09/21 16:16:55;;;;;;;0.00;0.00;;;;;;;;;;10419521;28;20066;-60
2021/09/21 16:22:01;;;;;;;0.10;0.10;;;;;;;;;;10417749;28;20072;-61
2021/09/21 16:27:04;;;;;;;0.00;0.00;;;;;;;;;;10423405;28;20044;-61
2021/09/21 16:32:07;;;;;;;0.00;0.00;;;;;;;;;;10423341;28;20132;-64
2021/09/21 16:37:11;;;;;;;0.17;0.05;;;;;;;;;;10428209;28;20049;-62
2021/09/21 16:42:14;;;;;;;0.10;0.10;;;;;;;;;;10427814;28;20051;-62
2021/09/21 16:47:17;;;;;;;0.60;0.10;;;;;;;;;;10434339;28;20045;-62
2021/09/21 16:52:25;;;;;;;0.10;0.10;;;;;;;;;;10435409;28;20041;-63
2021/09/21 16:57:27;;;;;;;0.10;0.10;;;;;;;;;;10421513;28;20044;-64
2021/09/21 17:02:36;;;;;;;0.10;0.10;;;;;;;;;;10425813;28;21034;-64
2021/09/21 17:07:41;;;;;;;0.03;0.03;;;;;;;;;;10423403;28;20045;-63
2021/09/21 17:12:44;;;;;;;0.10;0.10;;;;;;;;;;10416809;28;20064;-67
2021/09/21 17:17:46;;;;;;;0.03;0.03;;;;;;;;;;10431181;28;20041;-63
2021/09/21 17:22:51;;;;;;;0.00;0.00;;;;;;;;;;10421441;28;20427;-62
2021/09/21 17:27:55;;;;;;;0.00;0.00;;;;;;;;;;10427323;28;20044;-62
2021/09/21 17:32:58;;;;;;;0.10;0.10;;;;;;;;;;10423907;28;20049;-62
2021/09/21 17:38:03;;;;;;;0.00;0.00;;;;;;;;;;10424608;28;20550;-63
2021/09/21 17:43:07;;;;;;;0.10;0.10;;;;;;;;;;10429572;28;20083;-62
2021/09/21 17:48:11;;;;;;;0.00;0.00;;;;;;;;;;10432210;28;20561;-62
2021/09/21 17:53:18;;;;;;;0.10;0.10;;;;;;;;;;10431357;28;20853;-63
2021/09/21 17:58:23;;;;;;;0.10;0.10;;;;;;;;;;10421258;28;20049;-63
2021/09/21 18:03:27;;;;;;;0.10;0.10;;;;;;;;;;10428877;28;20479;-62
2021/09/21 18:08:32;;;;;;;0.10;0.10;;;;;;;;;;10427308;28;20067;-61
2021/09/21 18:13:35;;;;;;;0.10;0.10;;;;;;;;;;10430856;28;20044;-63
2021/09/21 18:19:13;;;;;;;0.10;0.10;;;;;;;;;;10426256;28;20056;-61
2021/09/21 18:24:17;;;;;;;0.00;0.00;;;;;;;;;;10446577;28;20099;-62
2021/09/21 18:29:21;;;;;;;0.10;0.10;;;;;;;;;;10425398;28;20053;-60
2021/09/21 18:34:25;;;;;;;0.10;0.10;;;;;;;;;;10414349;28;20053;-60
2021/09/21 18:39:29;;;;;;;0.10;0.10;;;;;;;;;;10401022;28;20521;-61
2021/09/21 18:44:32;;;;;;;0.10;0.10;;;;;;;;;;10411714;28;20057;-61
2021/09/21 18:49:35;;;;;;;0.10;0.10;;;;;;;;;;10415219;28;20414;-61
2021/09/21 18:54:39;;;;;;;0.10;0.10;;;;;;;;;;10422241;28;20033;-60
2021/09/21 18:59:42;;;;;;;0.15;0.15;;;;;;;;;;10421421;28;21041;-62
2021/09/21 19:04:45;;;;;;;0.20;0.10;;;;;;;;;;10411320;28;20567;-63
2021/09/21 19:09:49;;;;;;;0.10;0.10;;;;;;;;;;10420904;28;20054;-62
2021/09/21 19:14:52;;;;;;;0.10;0.10;;;;;;;;;;10419021;28;20487;-61
2021/09/21 19:19:55;;;;;;;0.10;0.10;;;;;;;;;;10413812;28;20740;-62
2021/09/21 19:25:00;;;;;;;0.95;0.20;;;;;;;;;;10417158;28;20040;-61
2021/09/21 19:30:03;;;;;;;0.10;0.10;;;;;;;;;;10418608;28;20045;-62
2021/09/21 19:35:08;;;;;;;0.20;0.20;;;;;;;;;;10422436;28;20482;-62
2021/09/21 19:40:13;;;;;;;0.10;0.10;;;;;;;;;;10413981;28;20072;-62
2021/09/21 19:45:17;;;;;;;0.10;0.10;;;;;;;;;;10415695;28;20045;-62
2021/09/21 19:50:22;;;;;;;0.10;0.10;;;;;;;;;;10420935;28;20056;-63
2021/09/21 19:55:27;;;;;;;0.10;0.10;;;;;;;;;;10421520;28;20041;-63
2021/09/21 20:00:30;;;;;;;0.43;0.20;;;;;;;;;;10415654;28;20052;-64
2021/09/21 20:05:33;;;;;;;0.10;0.10;;;;;;;;;;10422003;28;20049;-64
2021/09/21 20:10:37;;;;;;;0.20;0.17;;;;;;;;;;10411360;28;20049;-64
2021/09/21 20:15:40;;;;;;;0.10;0.10;;;;;;;;;;10413980;28;20453;-64
2021/09/21 20:20:43;;;;;;;0.10;0.10;;;;;;;;;;10417547;28;20135;-64
2021/09/21 20:25:48;;;;;;;0.10;0.10;;;;;;;;;;10420853;28;20037;-64
2021/09/21 20:30:50;;;;;;;0.20;0.20;;;;;;;;;;10420558;28;20578;-64
2021/09/21 20:35:55;;;;;;;0.20;0.20;;;;;;;;;;10419909;28;20059;-64
2021/09/21 20:41:01;;;;;;;0.20;0.20;;;;;;;;;;10423019;28;20052;-65
2021/09/21 20:46:04;;;;;;;0.10;0.10;;;;;;;;;;10418170;28;20057;-64
2021/09/21 20:51:10;;;;;;;0.10;0.10;;;;;;;;;;10419414;28;20167;-64
2021/09/21 20:56:14;;;;;;;0.10;0.10;;;;;;;;;;10421157;28;20056;-63
2021/09/21 21:01:18;;;;;;;0.10;0.10;;;;;;;;;;10396356;28;20451;-64
2021/09/21 21:06:21;;;;;;;0.52;0.10;;;;;;;;;;10392575;28;20467;-64
2021/09/21 21:11:25;;;;;;;0.10;0.10;;;;;;;;;;10392733;28;20060;-64
2021/09/21 21:16:28;;;;;;;0.30;0.20;;;;;;;;;;10392495;28;20044;-65
2021/09/21 21:21:31;;;;;;;0.20;0.17;;;;;;;;;;10393319;28;20041;-65
2021/09/21 21:26:35;;;;;;;0.10;0.10;;;;;;;;;;10389820;28;20041;-64
2021/09/21 21:31:38;;;;;;;0.10;0.10;;;;;;;;;;10392167;28;20479;-64
2021/09/21 21:36:41;;;;;;;0.35;0.17;;;;;;;;;;10396221;28;20034;-64
2021/09/21 21:41:45;;;;;;;0.10;0.10;;;;;;;;;;10405336;28;20049;-65
2021/09/21 21:46:48;;;;;;;0.10;0.10;;;;;;;;;;10396805;28;20053;-65
2021/09/21 21:51:51;;;;;;;0.10;0.10;;;;;;;;;;10392919;28;20154;-64
2021/09/21 21:56:55;;;;;;;0.10;0.10;;;;;;;;;;10393818;28;20131;-64
2021/09/21 22:01:59;;;;;;;0.10;0.10;;;;;;;;;;10393919;28;20410;-64
2021/09/21 22:07:02;;;;;;;0.10;0.10;;;;;;;;;;10395586;28;20823;-65
2021/09/21 22:12:06;;;;;;;0.10;0.10;;;;;;;;;;10395548;28;20061;-64
2021/09/21 22:17:09;;;;;;;0.10;0.10;;;;;;;;;;10392163;28;20067;-64
2021/09/21 22:22:12;;;;;;;0.10;0.10;;;;;;;;;;10394623;28;20051;-64
2021/09/21 22:27:16;;;;;;;0.10;0.10;;;;;;;;;;10394943;28;20044;-64
2021/09/21 22:32:20;;;;;;;0.10;0.10;;;;;;;;;;10397935;28;20041;-64
2021/09/21 22:37:23;;;;;;;0.10;0.10;;;;;;;;;;10393836;28;20041;-64
2021/09/21 22:42:28;;;;;;;0.10;0.10;;;;;;;;;;10393332;28;20047;-64
2021/09/21 22:47:31;;;;;;;0.10;0.10;;;;;;;;;;10391135;28;20038;-63
2021/09/21 22:52:33;;;;;;;0.10;0.10;;;;;;;;;;10389065;28;20500;-63
2021/09/21 22:57:38;;;;;;;0.10;0.10;;;;;;;;;;10390505;28;20068;-63
2021/09/21 23:02:40;;;;;;;0.10;0.10;;;;;;;;;;10387983;28;20055;-64
2021/09/21 23:07:46;;;;;;;0.10;0.10;;;;;;;;;;10390430;28;20460;-64
2021/09/21 23:12:51;;;;;;;0.10;0.10;;;;;;;;;;10398315;28;20109;-64
2021/09/21 23:17:54;;;;;;;0.10;0.10;;;;;;;;;;10400715;28;20484;-64
2021/09/21 23:22:57;;;;;;;0.10;0.10;;;;;;;;;;10388143;28;20053;-64
2021/09/21 23:28:01;;;;;;;0.00;0.00;;;;;;;;;;10389450;28;20042;-64
2021/09/21 23:33:04;;;;;;;0.05;0.05;;;;;;;;;;10391798;28;20172;-64
2021/09/21 23:38:07;;;;;;;0.10;0.10;;;;;;;;;;10396745;28;20056;-64
2021/09/21 23:43:11;;;;;;;0.10;0.10;;;;;;;;;;10389710;28;20071;-64
2021/09/21 23:48:14;;;;;;;0.10;0.10;;;;;;;;;;10397420;28;20034;-64
2021/09/21 23:53:18;;;;;;;0.10;0.10;;;;;;;;;;10397871;28;20045;-64
2021/09/21 23:58:22;;;;;;;0.17;0.17;;;;;;;;;;10400185;28;20055;-64
